Time;durP1;ratioP1;P1;durP2;ratioP2;P2;SDS_P1;SDS_P2;PMS_P1;PMS_P2;Temp;Humidity;BMP_temperature;BMP_pressure;BME280_temperature;BME280_humidity;BME280_pressure;Samples;Min_cycle;Max_cycle;Signal;HPM_P1;HPM_P2
2022/11/29 00:01:03;;;;;;;165.32;100.78;;;51.90;2227.20;;;;;;5076561;28;20032;-83
2022/11/29 00:03:29;;;;;;;175.55;109.38;;;52.10;2227.20;;;;;;5108866;28;20025;-80
2022/11/29 00:05:55;;;;;;;184.90;120.32;;;52.00;2227.20;;;;;;5076565;28;20078;-83
2022/11/29 00:08:22;;;;;;;178.93;108.07;;;51.90;2227.20;;;;;;5109281;28;20098;-82
2022/11/29 00:10:49;;;;;;;172.10;106.10;;;51.80;2227.20;;;;;;5108891;28;20060;-82
2022/11/29 00:13:16;;;;;;;154.77;95.93;;;51.70;2227.20;;;;;;5076635;28;20371;-83
2022/11/29 00:15:42;;;;;;;170.40;104.55;;;51.80;2227.20;;;;;;5111735;27;20028;-85
2022/11/29 00:18:08;;;;;;;154.98;94.10;;;51.80;2227.20;;;;;;5095928;28;20024;-86
2022/11/29 00:20:34;;;;;;;148.75;89.10;;;51.70;2227.20;;;;;;5095816;28;20066;-88
2022/11/29 00:23:00;;;;;;;190.52;110.90;;;51.80;2227.20;;;;;;5096181;28;20036;-86
2022/11/29 00:25:26;;;;;;;149.40;87.53;;;51.80;2227.20;;;;;;5095925;28;20028;-86
2022/11/29 00:27:52;;;;;;;149.63;86.22;;;51.80;2227.20;;;;;;5096034;28;20031;-83
2022/11/29 00:30:19;;;;;;;138.70;79.53;;;51.70;2227.20;;;;;;5096061;28;20379;-85
2022/11/29 00:32:45;;;;;;;124.25;74.30;;;51.70;2227.20;;;;;;5095932;28;20051;-86
2022/11/29 00:35:11;;;;;;;127.35;74.32;;;51.70;2227.20;;;;;;5095875;28;20062;-87
2022/11/29 00:37:37;;;;;;;112.45;65.90;;;51.60;2227.20;;;;;;5095720;28;20069;-84
2022/11/29 00:40:04;;;;;;;114.43;64.55;;;51.70;2227.20;;;;;;5095499;28;20391;-86
2022/11/29 00:42:29;;;;;;;115.78;70.40;;;51.70;2227.20;;;;;;5095334;28;20035;-87
2022/11/29 00:44:55;;;;;;;115.63;70.18;;;51.80;2227.20;;;;;;5092281;28;20016;-85
2022/11/29 00:47:21;;;;;;;119.43;72.95;;;51.90;2227.20;;;;;;5095531;28;20119;-84
2022/11/29 00:49:47;;;;;;;160.65;88.18;;;51.90;2227.20;;;;;;5094755;28;20077;-85
2022/11/29 00:52:12;;;;;;;133.90;84.20;;;51.80;2227.20;;;;;;5094837;28;20028;-85
2022/11/29 00:54:38;;;;;;;129.43;78.60;;;51.80;2227.20;;;;;;5096758;28;20380;-85
2022/11/29 00:57:04;;;;;;;156.80;90.47;;;51.80;2227.20;;;;;;5096606;28;20099;-85
2022/11/29 00:59:30;;;;;;;126.68;70.97;;;51.70;2227.20;;;;;;5095276;28;20028;-85
2022/11/29 01:01:56;;;;;;;104.28;58.30;;;51.80;2227.20;;;;;;5096653;28;20173;-84
2022/11/29 01:04:21;;;;;;;94.93;49.92;;;51.60;2227.20;;;;;;5095428;28;20028;-85
2022/11/29 01:06:51;;;;;;;77.82;44.58;;;51.60;2227.20;;;;;;5095254;28;20028;-85
2022/11/29 01:09:17;;;;;;;82.45;48.22;;;51.40;2227.20;;;;;;5095290;28;20028;-85
2022/11/29 01:11:43;;;;;;;75.18;46.88;;;51.40;2227.20;;;;;;5095167;28;20028;-84
2022/11/29 01:14:11;;;;;;;68.38;41.08;;;51.30;2227.20;;;;;;5094601;28;20031;-85
2022/11/29 01:16:36;;;;;;;69.15;40.60;;;51.40;2227.20;;;;;;5096185;28;20028;-86
2022/11/29 01:19:03;;;;;;;64.65;40.90;;;51.50;2227.20;;;;;;5094760;28;20529;-86
2022/11/29 01:21:29;;;;;;;69.45;40.85;;;51.40;2227.20;;;;;;5095051;28;20032;-85
2022/11/29 01:23:55;;;;;;;60.92;36.63;;;51.30;2227.20;;;;;;5095246;28;20031;-86
2022/11/29 01:26:27;;;;;;;60.10;37.20;;;51.20;2227.20;;;;;;5094865;28;20024;-85
2022/11/29 01:28:54;;;;;;;56.67;34.55;;;26.50;2201.60;;;;;;5091063;28;20026;-85
2022/11/29 01:31:24;;;;;;;68.15;39.92;;;26.40;2201.60;;;;;;5074637;28;20500;-84
2022/11/29 01:33:59;;;;;;;71.43;42.17;;;26.50;2201.60;;;;;;5107900;28;20024;-83
2022/11/29 01:36:25;;;;;;;78.00;44.90;;;26.40;2201.60;;;;;;5108368;28;20081;-86
2022/11/29 01:38:51;;;;;;;61.58;36.45;;;51.20;2227.20;;;;;;5075333;28;20047;-85
2022/11/29 01:41:23;;;;;;;59.67;34.80;;;26.50;2201.60;;;;;;5108010;28;20064;-86
2022/11/29 01:44:11;;;;;;;62.83;37.25;;;26.50;2201.60;;;;;;5074610;28;20029;-86
2022/11/29 01:46:39;;;;;;;63.72;37.38;;;26.40;2201.60;;;;;;5108297;28;20029;-85
2022/11/29 01:49:10;;;;;;;54.10;32.22;;;26.30;2201.60;;;;;;5108437;28;20025;-86
2022/11/29 01:51:39;;;;;;;57.08;33.58;;;26.30;2201.60;;;;;;5108234;28;20032;-85
2022/11/29 01:54:06;;;;;;;65.20;37.83;;;26.40;2201.60;;;;;;5108219;28;20020;-85
2022/11/29 01:56:33;;;;;;;63.63;37.00;;;26.00;2201.60;;;;;;5107982;28;20032;-85
2022/11/29 01:59:02;;;;;;;142.07;78.03;;;26.30;2201.60;;;;;;5108283;28;20029;-85
2022/11/29 02:01:28;;;;;;;111.82;61.85;;;26.20;2201.60;;;;;;5108028;28;20042;-85
2022/11/29 02:03:54;;;;;;;85.45;49.25;;;26.40;2201.60;;;;;;5106980;28;20119;-85
2022/11/29 02:06:20;;;;;;;83.72;47.60;;;26.40;2201.60;;;;;;5107938;28;20028;-85
2022/11/29 02:08:46;;;;;;;161.45;68.45;;;26.40;2201.60;;;;;;5108089;28;20203;-85
2022/11/29 02:11:47;;;;;;;93.60;50.00;;;26.30;2201.60;;;;;;5073662;28;20537;-86
2022/11/29 02:14:28;;;;;;;86.32;44.75;;;26.30;2201.60;;;;;;5066943;28;20040;-85
2022/11/29 02:17:09;;;;;;;72.82;41.05;;;26.20;2201.60;;;;;;5107658;28;20020;-85
2022/11/29 02:20:16;;;;;;;70.90;41.58;;;26.10;2201.60;;;;;;5108038;28;20025;-86
2022/11/29 02:22:59;;;;;;;85.63;47.88;;;26.10;2201.60;;;;;;5070848;28;20537;-85
2022/11/29 02:25:41;;;;;;;85.13;45.58;;;26.20;2201.60;;;;;;5108800;28;20119;-86
2022/11/29 02:28:32;;;;;;;163.07;71.55;;;26.40;2201.60;;;;;;5107900;28;20028;-86
2022/11/29 02:31:10;;;;;;;107.82;53.17;;;26.40;2201.60;;;;;;5107654;28;20020;-85
2022/11/29 02:34:02;;;;;;;68.65;40.45;;;26.20;2201.60;;;;;;5107798;28;20028;-86
2022/11/29 02:36:56;;;;;;;59.15;35.83;;;26.20;2201.60;;;;;;5070657;28;20408;-86
2022/11/29 02:39:56;;;;;;;73.32;36.20;;;26.20;2201.60;;;;;;5107559;28;20033;-85
2022/11/29 02:42:50;;;;;;;58.70;33.22;;;26.30;2201.60;;;;;;5062184;28;20203;-86
2022/11/29 02:45:22;;;;;;;66.07;37.70;;;26.10;2201.60;;;;;;5112407;28;20020;-84
2022/11/29 02:48:09;;;;;;;56.42;34.90;;;26.10;2201.60;;;;;;5132065;28;20016;-85
2022/11/29 02:50:53;;;;;;;55.88;32.60;;;26.10;2201.60;;;;;;5097947;28;20153;-86
2022/11/29 02:53:57;;;;;;;65.72;36.53;;;26.00;2201.60;;;;;;5092164;28;20029;-87
2022/11/29 02:56:44;;;;;;;70.95;38.55;;;25.90;2201.60;;;;;;5062527;28;20464;-86
2022/11/29 02:59:40;;;;;;;69.65;38.90;;;26.00;2201.60;;;;;;5073517;28;20028;-86
2022/11/29 03:02:41;;;;;;;68.07;38.55;;;26.10;2201.60;;;;;;5107169;28;20071;-87
2022/11/29 03:05:35;;;;;;;68.65;37.80;;;26.20;2201.60;;;;;;5073090;28;20035;-86
2022/11/29 03:08:35;;;;;;;71.70;40.70;;;26.00;2201.60;;;;;;5073079;28;20032;-86
2022/11/29 03:11:43;;;;;;;67.80;38.72;;;26.00;2201.60;;;;;;5073115;28;20082;-87
2022/11/29 03:14:12;;;;;;;62.20;36.08;;;26.10;2201.60;;;;;;5072041;28;20499;-86
2022/11/29 03:17:23;;;;;;;61.20;34.28;;;26.00;2201.60;;;;;;5078566;28;20025;-87
2022/11/29 03:20:27;;;;;;;49.67;30.75;;;25.80;2201.60;;;;;;5063534;28;20037;-87
2022/11/29 03:23:30;;;;;;;55.90;33.97;;;26.00;2201.60;;;;;;5111231;28;20056;-86
2022/11/29 03:26:15;;;;;;;60.20;32.38;;;25.90;2201.60;;;;;;5110836;28;20040;-87
2022/11/29 03:28:41;;;;;;;56.65;31.27;;;25.90;2201.60;;;;;;5077006;28;20035;-87
2022/11/29 03:31:36;;;;;;;56.55;34.00;;;25.90;2201.60;;;;;;5110697;28;20028;-87
2022/11/29 03:34:10;;;;;;;59.85;31.42;;;25.90;2201.60;;;;;;5076855;28;20032;-86
2022/11/29 03:36:55;;;;;;;58.88;33.20;;;25.80;2201.60;;;;;;5110554;28;20124;-87
2022/11/29 03:39:42;;;;;;;61.72;32.97;;;25.60;2201.60;;;;;;5110708;28;20186;-88
2022/11/29 03:42:18;;;;;;;63.97;37.47;;;25.60;2201.60;;;;;;5077509;28;20036;-86
2022/11/29 03:45:01;;;;;;;65.78;34.72;;;0.90;2201.60;;;;;;5076867;28;20024;-87
2022/11/29 03:47:32;;;;;;;;;;;0.90;2201.60;;;;;;5077218;28;20039;-86
2022/11/29 03:50:10;;;;;;;58.65;29.40;;;25.70;2201.60;;;;;;5076716;28;19904;-87
2022/11/29 03:53:06;;;;;;;54.65;31.05;;;25.70;2201.60;;;;;;5110453;28;20065;-87
2022/11/29 03:55:47;;;;;;;57.45;30.90;;;0.80;2201.60;;;;;;5061830;28;20050;-86
2022/11/29 03:58:22;;;;;;;52.90;28.58;;;0.80;2201.60;;;;;;5110473;28;20021;-87
2022/11/29 04:00:48;;;;;;;60.17;32.55;;;0.90;2201.60;;;;;;5110111;28;20115;-87
2022/11/29 04:03:39;;;;;;;68.45;36.47;;;0.90;2201.60;;;;;;5110084;28;20112;-87
2022/11/29 04:06:38;;;;;;;62.85;34.80;;;0.80;2201.60;;;;;;5077511;28;20024;-87
2022/11/29 04:09:40;;;;;;;54.50;28.77;;;0.80;2201.60;;;;;;5077169;28;20031;-87
2022/11/29 04:12:21;;;;;;;65.15;29.50;;;0.80;2201.60;;;;;;5075875;28;20036;-87
2022/11/29 04:15:16;;;;;;;62.17;33.15;;;0.70;2201.60;;;;;;5109969;28;20036;-86
2022/11/29 04:18:06;;;;;;;64.63;34.58;;;0.60;2201.60;;;;;;5072772;28;20037;-86
2022/11/29 04:21:05;;;;;;;65.93;36.45;;;0.70;2201.60;;;;;;5109731;28;20024;-86
2022/11/29 04:23:31;;;;;;;78.03;38.45;;;0.60;2201.60;;;;;;5075616;28;20472;-87
2022/11/29 04:26:20;;;;;;;58.67;30.35;;;0.60;2201.60;;;;;;5108470;28;20158;-86
2022/11/29 04:29:05;;;;;;;55.97;33.50;;;0.70;2201.60;;;;;;5075818;28;20089;-86
2022/11/29 04:31:31;;;;;;;71.05;35.60;;;0.80;2201.60;;;;;;5076862;28;20099;-86
2022/11/29 04:34:15;;;;;;;70.80;37.78;;;0.60;2201.60;;;;;;5076624;28;20024;-86
2022/11/29 04:36:44;;;;;;;77.45;39.97;;;0.60;2201.60;;;;;;5109038;28;20032;-85
2022/11/29 04:39:22;;;;;;;75.80;38.70;;;0.60;2201.60;;;;;;5075485;28;20025;-86
2022/11/29 04:42:07;;;;;;;75.47;40.67;;;0.60;2201.60;;;;;;5074766;28;20036;-86
2022/11/29 04:44:46;;;;;;;69.72;36.95;;;0.60;2201.60;;;;;;5075304;28;20070;-85
2022/11/29 04:47:53;;;;;;;73.68;34.90;;;0.70;2201.60;;;;;;5075299;28;20040;-86
2022/11/29 04:50:56;;;;;;;68.65;34.50;;;0.50;2201.60;;;;;;5070678;28;20048;-85
2022/11/29 04:53:50;;;;;;;62.15;35.75;;;0.60;2201.60;;;;;;5035937;28;20511;-86
2022/11/29 04:56:50;;;;;;;62.17;33.47;;;0.50;2201.60;;;;;;5056129;28;20115;-86
2022/11/29 04:59:37;;;;;;;63.47;33.05;;;0.60;2201.60;;;;;;5075068;28;20517;-85
2022/11/29 05:02:05;;;;;;;71.78;39.05;;;0.80;2201.60;;;;;;5076498;28;20388;-86
2022/11/29 05:04:52;;;;;;;82.20;43.75;;;0.90;2201.60;;;;;;5075118;28;20024;-87
2022/11/29 05:07:28;;;;;;;101.65;54.67;;;25.70;2201.60;;;;;;5090619;28;20027;-85
2022/11/29 05:10:23;;;;;;;102.63;53.40;;;25.70;2201.60;;;;;;5095138;28;20020;-85
2022/11/29 05:13:07;;;;;;;86.82;44.08;;;25.80;2201.60;;;;;;5094364;28;20452;-85
2022/11/29 05:16:06;;;;;;;96.50;47.42;;;25.80;2201.60;;;;;;5095083;28;20035;-84
2022/11/29 05:18:47;;;;;;;91.97;44.53;;;25.60;2201.60;;;;;;5095601;28;20028;-86
2022/11/29 05:21:40;;;;;;;68.22;39.33;;;0.90;2201.60;;;;;;5095804;28;20066;-85
2022/11/29 05:24:21;;;;;;;75.80;39.30;;;0.90;2201.60;;;;;;5094825;28;20024;-86
2022/11/29 05:26:53;;;;;;;65.10;35.22;;;0.90;2201.60;;;;;;5094838;28;20493;-87
2022/11/29 05:29:33;;;;;;;66.78;35.97;;;0.80;2201.60;;;;;;5094738;28;20460;-86
2022/11/29 05:32:31;;;;;;;80.45;39.13;;;0.90;2201.60;;;;;;5094624;28;20036;-85
2022/11/29 05:35:33;;;;;;;66.53;35.50;;;0.90;2201.60;;;;;;5094824;28;20030;-86
2022/11/29 05:38:17;;;;;;;79.10;44.15;;;25.60;2201.60;;;;;;5094700;28;20110;-86
2022/11/29 05:41:04;;;;;;;75.68;41.90;;;0.90;2201.60;;;;;;5094226;28;20115;-85
2022/11/29 05:43:56;;;;;;;87.78;43.95;;;0.90;2201.60;;;;;;5094488;28;20024;-86
2022/11/29 05:46:59;;;;;;;84.40;45.67;;;0.70;2201.60;;;;;;5092985;28;20031;-86
2022/11/29 05:49:31;;;;;;;101.50;52.53;;;0.80;2201.60;;;;;;4996238;28;20026;-86
2022/11/29 05:52:29;;;;;;;125.95;63.38;;;0.60;2201.60;;;;;;5078956;28;20032;-86
2022/11/29 05:55:01;;;;;;;86.05;47.85;;;0.70;2201.60;;;;;;5088921;28;20035;-86
2022/11/29 05:57:59;;;;;;;120.63;55.88;;;0.80;2201.60;;;;;;5094375;28;20101;-86
2022/11/29 06:00:47;;;;;;;93.70;46.35;;;0.80;2201.60;;;;;;5095558;28;20048;-87
2022/11/29 06:03:38;;;;;;;84.97;40.80;;;0.50;2201.60;;;;;;5094440;28;20039;-87
2022/11/29 06:06:21;;;;;;;73.88;38.35;;;0.50;2201.60;;;;;;5094337;28;20020;-86
2022/11/29 06:08:59;;;;;;;85.85;40.58;;;0.40;2201.60;;;;;;5093955;28;20024;-86
2022/11/29 06:11:43;;;;;;;71.00;39.20;;;0.50;2201.60;;;;;;5094065;28;20077;-86
2022/11/29 06:14:41;;;;;;;112.78;55.45;;;0.60;2201.60;;;;;;5091908;28;20063;-86
2022/11/29 06:17:38;;;;;;;106.45;58.47;;;0.50;2201.60;;;;;;5073870;28;20075;-86
2022/11/29 06:20:11;;;;;;;96.85;52.88;;;0.50;2201.60;;;;;;5072876;28;20025;-86
2022/11/29 06:23:27;;;;;;;100.45;55.35;;;0.50;2201.60;;;;;;5073572;28;20035;-86
2022/11/29 06:26:17;;;;;;;86.88;47.00;;;0.50;2201.60;;;;;;5073407;28;20040;-86
2022/11/29 06:29:16;;;;;;;96.43;51.05;;;0.60;2201.60;;;;;;5074703;28;20077;-87
2022/11/29 06:31:46;;;;;;;100.32;55.22;;;0.70;2201.60;;;;;;5090373;28;20039;-86
2022/11/29 06:34:47;;;;;;;113.00;54.05;;;0.60;2201.60;;;;;;5073595;28;20498;-86
2022/11/29 06:37:22;;;;;;;114.40;68.90;;;0.70;2201.60;;;;;;5069931;28;20123;-87
2022/11/29 06:39:48;;;;;;;84.35;47.13;;;0.50;2201.60;;;;;;5073107;28;20052;-86
2022/11/29 06:42:13;;;;;;;74.88;39.88;;;0.50;2201.60;;;;;;5073120;28;20036;-86
2022/11/29 06:44:39;;;;;;;89.03;49.40;;;0.60;2201.60;;;;;;5073278;28;20032;-86
2022/11/29 06:47:26;;;;;;;91.38;53.15;;;0.70;2201.60;;;;;;5073409;28;20025;-86
2022/11/29 06:50:22;;;;;;;105.32;56.40;;;0.60;2201.60;;;;;;5089477;28;20033;-86
2022/11/29 06:52:57;;;;;;;102.60;58.50;;;0.60;2201.60;;;;;;5073414;28;20036;-85
2022/11/29 06:55:48;;;;;;;102.88;57.45;;;0.70;2201.60;;;;;;5073706;28;20534;-85
2022/11/29 06:58:38;;;;;;;110.55;65.65;;;0.70;2201.60;;;;;;5073294;28;20021;-86
2022/11/29 07:01:20;;;;;;;122.88;60.55;;;0.90;2201.60;;;;;;5073240;28;20111;-86
2022/11/29 07:04:18;;;;;;;104.60;53.90;;;0.90;2201.60;;;;;;5074163;28;20020;-87
2022/11/29 07:06:44;;;;;;;90.03;48.47;;;0.90;2201.60;;;;;;5081590;28;20096;-85
2022/11/29 07:09:16;;;;;;;96.30;54.33;;;0.90;2201.60;;;;;;5074642;28;20479;-86
2022/11/29 07:11:43;;;;;;;88.35;49.63;;;0.90;2201.60;;;;;;5072876;28;20064;-87
2022/11/29 07:14:09;;;;;;;87.70;51.28;;;25.60;2201.60;;;;;;5073018;28;20036;-87
2022/11/29 07:16:41;;;;;;;83.85;51.03;;;25.60;2201.60;;;;;;5072837;28;20074;-85
2022/11/29 07:19:32;;;;;;;79.00;44.03;;;25.60;2201.60;;;;;;5073187;28;20021;-87
2022/11/29 07:22:15;;;;;;;83.40;47.03;;;25.70;2201.60;;;;;;5073060;28;20123;-87
2022/11/29 07:25:00;;;;;;;165.55;94.32;;;25.70;2201.60;;;;;;5073918;28;20070;-86
2022/11/29 07:27:37;;;;;;;97.63;54.92;;;25.70;2201.60;;;;;;5073522;28;20025;-87
2022/11/29 07:30:15;;;;;;;72.95;40.58;;;25.70;2201.60;;;;;;5073770;28;20459;-86
2022/11/29 07:33:19;;;;;;;63.58;36.67;;;25.80;2201.60;;;;;;5073293;28;20036;-86
2022/11/29 07:36:34;;;;;;;54.83;33.35;;;26.00;2201.60;;;;;;5067107;28;20128;-86
2022/11/29 07:39:35;;;;;;;59.22;33.83;;;26.10;2201.60;;;;;;5069375;28;20047;-85
2022/11/29 07:42:24;;;;;;;57.83;34.92;;;26.10;2201.60;;;;;;5068697;28;20073;-87
2022/11/29 07:45:04;;;;;;;89.47;48.03;;;26.20;2201.60;;;;;;5074647;28;20037;-86
2022/11/29 07:47:30;;;;;;;110.05;58.92;;;26.30;2201.60;;;;;;5073512;28;20082;-86
2022/11/29 07:49:55;;;;;;;90.65;52.03;;;26.30;2201.60;;;;;;5073306;28;20119;-86
2022/11/29 07:52:21;;;;;;;95.75;54.97;;;26.30;2201.60;;;;;;5075980;28;20040;-86
2022/11/29 07:54:47;;;;;;;77.03;46.97;;;26.40;2201.60;;;;;;5073460;28;20074;-85
2022/11/29 07:57:13;;;;;;;66.28;41.65;;;51.20;2227.20;;;;;;5073492;28;20027;-87
2022/11/29 07:59:38;;;;;;;64.60;42.58;;;51.30;2227.20;;;;;;5072500;28;20033;-86
2022/11/29 08:02:04;;;;;;;78.22;48.25;;;51.40;2227.20;;;;;;5076497;28;20038;-86
2022/11/29 08:04:30;;;;;;;79.72;49.53;;;51.50;2227.20;;;;;;5077276;28;20052;-86
2022/11/29 08:06:59;;;;;;;80.70;51.85;;;51.60;2227.20;;;;;;5076117;28;20025;-86
2022/11/29 08:09:25;;;;;;;79.95;46.22;;;51.60;2227.20;;;;;;5077484;28;20099;-86
2022/11/29 08:11:51;;;;;;;83.13;49.28;;;51.80;2227.20;;;;;;5077211;28;20071;-84
2022/11/29 08:14:17;;;;;;;87.82;54.80;;;51.80;2227.20;;;;;;5075819;28;20021;-86
2022/11/29 08:16:42;;;;;;;86.57;50.80;;;51.90;2227.20;;;;;;5076688;28;20075;-86
2022/11/29 08:19:08;;;;;;;76.95;48.50;;;51.90;2227.20;;;;;;5076425;28;20024;-84
2022/11/29 08:21:34;;;;;;;70.45;44.63;;;52.00;2227.20;;;;;;5076537;28;20063;-84
2022/11/29 08:24:00;;;;;;;72.70;45.88;;;52.10;2227.20;;;;;;5077452;28;20380;-85
2022/11/29 08:26:26;;;;;;;80.28;47.58;;;76.80;2227.20;;;;;;5077359;28;20024;-83
2022/11/29 08:28:51;;;;;;;77.78;49.60;;;76.90;2227.20;;;;;;5075997;28;20033;-83
2022/11/29 08:31:18;;;;;;;80.18;53.50;;;77.00;2227.20;;;;;;5076457;28;20037;-83
2022/11/29 08:33:44;;;;;;;70.15;48.15;;;77.10;2227.20;;;;;;5076308;28;20116;-82
2022/11/29 08:36:13;;;;;;;68.75;46.58;;;77.30;2227.20;;;;;;5080146;28;20436;-83
2022/11/29 08:38:39;;;;;;;89.30;57.17;;;77.30;2227.20;;;;;;5110443;28;20460;-84
2022/11/29 08:41:07;;;;;;;59.60;39.53;;;77.40;2227.20;;;;;;5107871;28;20047;-83
2022/11/29 08:43:33;;;;;;;62.15;40.63;;;77.50;2227.20;;;;;;5109193;28;20028;-84
2022/11/29 08:45:59;;;;;;;83.45;54.53;;;77.60;2227.20;;;;;;5108855;28;20563;-86
2022/11/29 08:48:25;;;;;;;74.10;47.85;;;77.50;2227.20;;;;;;5074451;28;20111;-84
2022/11/29 08:50:53;;;;;;;71.40;49.22;;;77.60;2227.20;;;;;;5074905;28;20021;-84
2022/11/29 08:56:04;;;;;;;64.50;42.25;;;77.70;2227.20;;;;;;5075887;28;20032;-89
2022/11/29 08:58:30;;;;;;;65.47;44.00;;;102.40;2227.20;;;;;;5075397;28;20035;-84
2022/11/29 09:00:56;;;;;;;65.80;44.50;;;102.50;2227.20;;;;;;5074801;28;20020;-83
2022/11/29 09:06:13;;;;;;;60.45;44.25;;;102.70;2227.20;;;;;;5076175;28;20120;-87
2022/11/29 09:08:42;;;;;;;51.78;34.05;;;102.80;2227.20;;;;;;5074673;28;20025;-86
2022/11/29 09:11:12;;;;;;;51.20;35.78;;;102.40;2227.20;;;;;;5074698;28;20036;-85
2022/11/29 09:13:39;;;;;;;56.38;38.72;;;103.00;2227.20;;;;;;5080376;28;20036;-89
2022/11/29 09:16:07;;;;;;;58.20;37.42;;;103.10;2227.20;;;;;;5095010;28;20024;-89
2022/11/29 09:18:33;;;;;;;98.25;62.67;;;103.10;2227.20;;;;;;5095805;28;20028;-85
2022/11/29 09:20:58;;;;;;;74.10;46.58;;;103.20;2227.20;;;;;;5094715;28;20031;-85
2022/11/29 09:23:24;;;;;;;71.43;45.85;;;103.20;2227.20;;;;;;5094099;28;20032;-84
2022/11/29 09:25:50;;;;;;;59.80;40.47;;;103.30;2227.20;;;;;;5094373;28;20024;-84
2022/11/29 09:28:16;;;;;;;84.47;52.42;;;128.10;2252.80;;;;;;5094368;28;20474;-85
2022/11/29 09:30:41;;;;;;;81.13;52.60;;;128.10;2252.80;;;;;;5094082;28;20367;-85
2022/11/29 09:33:07;;;;;;;76.88;47.78;;;128.20;2252.80;;;;;;5095608;28;20064;-84
2022/11/29 09:35:33;;;;;;;69.95;42.53;;;128.30;2252.80;;;;;;5094315;28;20021;-87
2022/11/29 09:37:59;;;;;;;80.03;51.47;;;128.30;2252.80;;;;;;5094468;28;20024;-85
2022/11/29 09:40:42;;;;;;;99.85;54.50;;;128.40;2252.80;;;;;;5094213;28;20392;-88
2022/11/29 09:43:42;;;;;;;66.38;39.47;;;128.40;2252.80;;;;;;5094634;28;20537;-88
2022/11/29 09:46:18;;;;;;;73.43;41.55;;;128.40;2252.80;;;;;;5094393;28;20039;-86
2022/11/29 09:49:06;;;;;;;67.55;39.70;;;128.40;2252.80;;;;;;5094398;28;20132;-86
2022/11/29 09:51:47;;;;;;;70.93;43.50;;;128.40;2252.80;;;;;;5094323;28;20034;-86
2022/11/29 09:54:28;;;;;;;99.38;64.63;;;128.50;2252.80;;;;;;5094223;28;20035;-84
2022/11/29 09:56:55;;;;;;;76.63;49.65;;;128.70;2252.80;;;;;;5094133;28;20051;-87
2022/11/29 09:59:27;;;;;;;95.63;57.00;;;128.70;2252.80;;;;;;5094068;28;20527;-86
2022/11/29 10:02:17;;;;;;;57.17;36.70;;;128.80;2252.80;;;;;;5094125;28;20032;-84
2022/11/29 10:04:49;;;;;;;60.22;37.53;;;153.60;2252.80;;;;;;5094086;28;20093;-86
2022/11/29 10:07:39;;;;;;;43.08;27.02;;;153.80;2252.80;;;;;;5093845;28;20085;-84
2022/11/29 10:10:36;;;;;;;44.45;30.52;;;153.90;2252.80;;;;;;5093759;28;20024;-85
2022/11/29 10:13:15;;;;;;;35.17;24.58;;;154.10;2252.80;;;;;;5094585;28;20499;-85
2022/11/29 10:15:44;;;;;;;41.10;26.77;;;154.00;2252.80;;;;;;5093826;28;20357;-85
2022/11/29 10:18:32;;;;;;;44.72;30.27;;;154.00;2252.80;;;;;;5093553;28;20563;-85
2022/11/29 10:21:05;;;;;;;67.38;43.15;;;154.10;2252.80;;;;;;5093692;28;20028;-85
2022/11/29 10:23:42;;;;;;;42.08;29.15;;;154.10;2252.80;;;;;;5094081;28;20035;-85
2022/11/29 10:26:11;;;;;;;59.10;39.53;;;154.20;2252.80;;;;;;5093147;28;20035;-85
2022/11/29 10:28:43;;;;;;;43.50;30.02;;;154.30;2252.80;;;;;;5094670;28;20020;-87
2022/11/29 10:31:30;;;;;;;64.35;46.58;;;154.50;2252.80;;;;;;5093618;28;20024;-84
2022/11/29 10:34:00;;;;;;;36.13;24.10;;;179.20;2252.80;;;;;;5093469;28;20028;-85
2022/11/29 10:36:46;;;;;;;36.65;24.10;;;179.40;2252.80;;;;;;5093284;28;20024;-86
2022/11/29 10:39:29;;;;;;;31.10;20.80;;;179.20;2252.80;;;;;;5093429;28;20073;-87
2022/11/29 10:41:59;;;;;;;31.65;22.15;;;179.20;2252.80;;;;;;5093195;28;20039;-86
2022/11/29 10:44:27;;;;;;;25.13;18.27;;;179.30;2252.80;;;;;;5094534;28;20056;-86
2022/11/29 10:46:54;;;;;;;30.77;20.80;;;179.30;2252.80;;;;;;5093258;28;20387;-85
2022/11/29 10:49:24;;;;;;;35.42;20.65;;;179.30;2252.80;;;;;;5094251;28;20114;-87
2022/11/29 10:51:50;;;;;;;32.13;19.70;;;179.60;2252.80;;;;;;5095013;28;20032;-85
2022/11/29 10:54:40;;;;;;;28.65;18.35;;;179.70;2252.80;;;;;;5094562;28;20388;-85
2022/11/29 10:57:18;;;;;;;30.83;17.23;;;179.70;2252.80;;;;;;5094881;28;20025;-85
2022/11/29 11:00:01;;;;;;;28.50;19.90;;;179.90;2252.80;;;;;;5093633;28;20074;-85
2022/11/29 11:02:27;;;;;;;18.42;13.35;;;179.90;2252.80;;;;;;5093490;28;20066;-85
2022/11/29 11:04:53;;;;;;;28.10;23.35;;;180.00;2252.80;;;;;;5093558;28;20040;-85
2022/11/29 11:07:34;;;;;;;34.03;23.02;;;180.00;2252.80;;;;;;5093474;28;20119;-85
2022/11/29 11:10:02;;;;;;;29.88;19.90;;;204.80;2252.80;;;;;;5093167;28;20455;-84
2022/11/29 11:12:33;;;;;;;19.95;13.43;;;205.10;2252.80;;;;;;5093040;28;20032;-84
2022/11/29 11:15:29;;;;;;;21.10;13.77;;;205.40;2252.80;;;;;;5094366;28;20107;-85
2022/11/29 11:18:02;;;;;;;20.33;13.75;;;205.70;2252.80;;;;;;5093655;28;20119;-85
2022/11/29 11:20:31;;;;;;;37.70;27.52;;;205.70;2252.80;;;;;;5094586;28;20464;-83
2022/11/29 11:23:06;;;;;;;23.15;16.02;;;230.50;2252.80;;;;;;5093038;28;20127;-84
2022/11/29 11:25:35;;;;;;;19.80;14.13;;;230.60;2252.80;;;;;;5093373;28;20510;-86
2022/11/29 11:28:20;;;;;;;27.73;18.45;;;230.80;2252.80;;;;;;5092807;28;20521;-84
2022/11/29 11:30:56;;;;;;;18.98;13.75;;;230.80;2252.80;;;;;;5092691;28;20024;-84
2022/11/29 11:33:31;;;;;;;18.50;12.02;;;231.10;2252.80;;;;;;5093330;28;20032;-85
2022/11/29 11:36:03;;;;;;;46.33;26.52;;;231.30;2252.80;;;;;;5094848;28;20024;-84
2022/11/29 11:38:29;;;;;;;41.33;26.20;;;256.20;2252.80;;;;;;5097260;28;20028;-84
2022/11/29 11:44:33;;;;;;;25.40;16.65;;;256.50;2252.80;;;;;;5096002;28;20043;-87
2022/11/29 11:47:00;;;;;;;36.20;22.63;;;256.50;2252.80;;;;;;5076732;28;20025;-85
2022/11/29 11:49:34;;;;;;;28.25;20.20;;;256.00;2252.80;;;;;;5075675;28;20024;-84
2022/11/29 11:52:03;;;;;;;34.78;22.45;;;231.20;2252.80;;;;;;5076643;28;20028;-82
2022/11/29 11:54:30;;;;;;;29.17;19.83;;;231.00;2252.80;;;;;;5077233;28;20074;-83
2022/11/29 11:56:56;;;;;;;34.78;24.38;;;;;;;;;;5076103;28;20082;-85
2022/11/29 11:59:25;;;;;;;36.92;25.80;;;;;;;;;;5076065;28;20145;-81
2022/11/29 12:01:51;;;;;;;36.63;24.67;;;205.70;2252.80;;;;;;5075722;28;20031;-83
2022/11/29 12:04:28;;;;;;;39.70;27.80;;;;;;;;;;5076920;28;20024;-83
2022/11/29 12:06:59;;;;;;;36.63;22.30;;;;;;;;;;5075472;28;20468;-82
2022/11/29 12:09:45;;;;;;;29.67;15.27;;;231.10;2252.80;;;;;;5076886;28;20059;-85
2022/11/29 12:12:21;;;;;;;21.80;14.23;;;230.90;2252.80;;;;;;5075222;28;20028;-81
2022/11/29 12:15:04;;;;;;;34.65;22.63;;;230.90;2252.80;;;;;;5076742;28;20032;-82
2022/11/29 12:17:49;;;;;;;33.83;23.08;;;;;;;;;;5086170;28;20031;-80
2022/11/29 12:20:15;;;;;;;30.35;21.35;;;;;;;;;;5095530;28;20185;-79
2022/11/29 12:22:53;;;;;;;30.15;18.95;;;;;;;;;;5094496;28;20028;-81
2022/11/29 12:25:23;;;;;;;29.15;21.95;;;;;;;;;;5095388;28;20036;-82
2022/11/29 12:27:49;;;;;;;26.52;19.70;;;256.50;2252.80;;;;;;5095689;28;20028;-82
2022/11/29 12:30:19;;;;;;;27.75;17.90;;;256.60;2252.80;;;;;;5095424;28;20020;-82
2022/11/29 12:33:09;;;;;;;24.33;15.85;;;256.80;2252.80;;;;;;5095426;28;20456;-82
2022/11/29 12:35:57;;;;;;;37.47;24.77;;;256.80;2252.80;;;;;;5096198;28;20044;-83
2022/11/29 12:38:58;;;;;;;30.13;21.27;;;256.90;2252.80;;;;;;5097039;28;20376;-84
2022/11/29 12:41:48;;;;;;;29.77;20.20;;;256.90;2252.80;;;;;;5094710;28;20527;-85
2022/11/29 12:44:29;;;;;;;26.90;17.92;;;256.70;2252.80;;;;;;5085604;28;20044;-89
2022/11/29 12:47:21;;;;;;;31.30;21.25;;;256.70;2252.80;;;;;;5091742;28;20031;-85
2022/11/29 12:49:59;;;;;;;29.00;19.30;;;256.70;2252.80;;;;;;5075220;28;20029;-84
2022/11/29 12:53:00;;;;;;;34.30;25.17;;;256.50;2252.80;;;;;;5074469;28;20032;-84
2022/11/29 12:55:48;;;;;;;32.70;19.02;;;256.70;2252.80;;;;;;5091687;28;20392;-84
2022/11/29 12:58:24;;;;;;;32.03;21.98;;;256.80;2252.80;;;;;;5075617;28;20067;-84
2022/11/29 13:01:10;;;;;;;59.15;35.75;;;256.70;2252.80;;;;;;5074709;28;20477;-87
2022/11/29 13:03:57;;;;;;;35.47;21.27;;;256.80;2252.80;;;;;;5074703;28;20032;-85
2022/11/29 13:06:48;;;;;;;42.30;25.25;;;256.90;2252.80;;;;;;5074902;28;20059;-84
2022/11/29 13:09:37;;;;;;;32.17;21.40;;;256.90;2252.80;;;;;;5074793;28;20036;-84